createdAt,value
2023-04-30T00:00:19.626Z,66.83
2023-04-30T00:02:45.944Z,66.93
2023-04-30T00:05:12.272Z,67.17
2023-04-30T00:07:38.577Z,67.68
2023-04-30T00:10:05.000Z,67.72
2023-04-30T00:12:31.108Z,67.98
2023-04-30T00:14:57.372Z,68.69
2023-04-30T00:17:23.525Z,68.92
2023-04-30T00:19:49.678Z,68.99
2023-04-30T00:22:15.947Z,69.39
2023-04-30T00:24:42.051Z,69.19
2023-04-30T00:27:08.201Z,69.00
2023-04-30T00:29:34.397Z,68.69
2023-04-30T00:32:00.517Z,68.63
2023-04-30T00:34:26.798Z,68.43
2023-04-30T00:36:52.938Z,68.01
2023-04-30T00:39:19.083Z,68.03
2023-04-30T00:41:45.224Z,68.29
2023-04-30T00:44:11.473Z,67.76
2023-04-30T00:46:37.615Z,67.97
2023-04-30T00:49:03.735Z,67.97
2023-04-30T00:51:29.833Z,67.79
2023-04-30T00:53:55.959Z,66.76
2023-04-30T00:56:23.272Z,67.52
2023-04-30T00:58:49.509Z,67.58
2023-04-30T01:01:15.797Z,67.02
2023-04-30T01:03:41.943Z,67.17
2023-04-30T01:06:08.308Z,67.37
2023-04-30T01:08:34.410Z,67.08
2023-04-30T01:11:00.532Z,67.29
2023-04-30T01:13:26.670Z,67.22
2023-04-30T01:15:52.838Z,66.84
2023-04-30T01:18:19.112Z,66.44
2023-04-30T01:20:45.301Z,67.13
2023-04-30T01:23:11.413Z,67.63
2023-04-30T01:25:37.830Z,67.49
2023-04-30T01:28:04.266Z,67.46
2023-04-30T01:30:30.501Z,67.11
2023-04-30T01:32:56.660Z,66.57
2023-04-30T01:35:23.346Z,65.45
2023-04-30T01:37:49.485Z,64.07
2023-04-30T01:40:15.642Z,65.92
2023-04-30T01:42:42.059Z,66.92
2023-04-30T01:45:08.170Z,67.30
2023-04-30T01:47:34.337Z,67.07
2023-04-30T01:50:00.782Z,66.26
2023-04-30T01:52:27.005Z,66.17
2023-04-30T01:54:53.501Z,64.67
2023-04-30T01:57:19.705Z,63.11
2023-04-30T01:59:46.227Z,65.50
2023-04-30T02:02:12.500Z,65.95
2023-04-30T02:04:39.014Z,66.54
2023-04-30T02:07:05.104Z,66.38
2023-04-30T02:09:31.404Z,66.28
2023-04-30T02:11:57.550Z,66.54
2023-04-30T02:14:23.667Z,66.31
2023-04-30T02:16:49.988Z,66.65
2023-04-30T02:19:16.563Z,66.66
2023-04-30T02:21:42.786Z,65.34
2023-04-30T02:24:09.002Z,65.85
2023-04-30T02:26:35.110Z,66.73
2023-04-30T02:29:01.221Z,66.27
2023-04-30T02:31:27.468Z,65.08
2023-04-30T02:33:53.662Z,64.80
2023-04-30T02:36:19.916Z,65.87
2023-04-30T02:38:46.117Z,65.40
2023-04-30T02:41:12.358Z,65.32
2023-04-30T02:43:38.541Z,66.23
2023-04-30T02:46:04.776Z,66.44
2023-04-30T02:48:31.027Z,67.23
2023-04-30T02:50:57.326Z,67.67
2023-04-30T02:53:23.589Z,68.00
2023-04-30T02:55:49.729Z,68.85
2023-04-30T02:58:15.847Z,68.87
2023-04-30T03:00:41.980Z,68.51
2023-04-30T03:03:08.571Z,68.87
2023-04-30T03:05:34.780Z,67.98
2023-04-30T03:08:01.088Z,67.79
2023-04-30T03:10:27.178Z,68.23
2023-04-30T03:12:53.625Z,67.73
2023-04-30T03:15:20.045Z,68.87
2023-04-30T03:17:46.453Z,68.10
2023-04-30T03:20:12.717Z,68.02
2023-04-30T03:22:38.960Z,67.90
2023-04-30T03:25:05.189Z,68.59
2023-04-30T03:27:31.632Z,69.09
2023-04-30T03:29:57.769Z,68.35
2023-04-30T03:32:23.954Z,67.80
2023-04-30T03:34:50.456Z,67.20
2023-04-30T03:37:16.619Z,67.62
2023-04-30T03:39:42.719Z,67.49
2023-04-30T03:42:08.876Z,67.60
2023-04-30T03:44:35.303Z,67.57
2023-04-30T03:47:01.562Z,67.95
2023-04-30T03:49:27.718Z,68.09
2023-04-30T03:51:53.916Z,68.30
2023-04-30T03:54:20.145Z,68.62
2023-04-30T03:56:46.591Z,68.45
2023-04-30T03:59:12.768Z,67.92
2023-04-30T04:01:39.001Z,67.97
2023-04-30T04:04:05.246Z,68.16
2023-04-30T04:06:31.865Z,68.55
2023-04-30T04:08:58.164Z,69.25
2023-04-30T04:11:24.261Z,68.95
2023-04-30T04:13:50.394Z,68.64
2023-04-30T04:16:16.702Z,69.19
2023-04-30T04:18:42.896Z,69.10
2023-04-30T04:21:09.062Z,69.60
2023-04-30T04:23:35.202Z,69.94
2023-04-30T04:26:01.373Z,68.92
2023-04-30T04:28:27.834Z,68.74
2023-04-30T04:30:54.075Z,69.10
2023-04-30T04:33:20.221Z,69.54
2023-04-30T04:35:46.353Z,69.68
2023-04-30T04:38:12.796Z,69.52
2023-04-30T04:40:38.913Z,69.95
2023-04-30T04:43:05.030Z,69.89
2023-04-30T04:45:31.142Z,69.43
2023-04-30T04:47:57.308Z,68.78
2023-04-30T04:50:23.446Z,69.02
2023-04-30T04:52:49.570Z,68.28
2023-04-30T04:55:15.700Z,68.68
2023-04-30T04:57:41.825Z,68.62
2023-04-30T05:00:07.935Z,68.25
2023-04-30T05:02:34.146Z,68.47
2023-04-30T05:05:00.317Z,68.12
2023-04-30T05:07:26.447Z,68.15
2023-04-30T05:09:52.840Z,67.67
2023-04-30T05:12:19.151Z,67.97
2023-04-30T05:14:45.256Z,67.92
2023-04-30T05:17:11.360Z,67.72
2023-04-30T05:19:37.473Z,68.39
2023-04-30T05:22:03.558Z,68.64
2023-04-30T05:24:29.661Z,68.80
2023-04-30T05:26:55.782Z,67.64
2023-04-30T05:29:21.946Z,67.09
2023-04-30T05:31:48.103Z,66.79
2023-04-30T05:34:14.241Z,66.35
2023-04-30T05:36:40.605Z,64.88
2023-04-30T05:39:07.705Z,63.09
2023-04-30T05:41:33.854Z,63.47
2023-04-30T05:43:59.975Z,64.15
2023-04-30T05:46:26.123Z,64.21
2023-04-30T05:48:52.254Z,64.07
2023-04-30T05:51:18.399Z,63.51
2023-04-30T05:53:44.498Z,63.22
2023-04-30T05:56:10.923Z,63.52
2023-04-30T05:58:37.235Z,63.97
2023-04-30T06:01:03.345Z,63.95
2023-04-30T06:03:29.537Z,63.80
2023-04-30T06:05:55.669Z,63.41
2023-04-30T06:08:21.821Z,63.56
2023-04-30T06:10:47.966Z,62.00
2023-04-30T06:13:14.097Z,62.77
2023-04-30T06:15:40.185Z,63.43
2023-04-30T06:18:06.404Z,64.35
2023-04-30T06:20:32.546Z,64.11
2023-04-30T06:22:58.651Z,63.73
2023-04-30T06:25:24.756Z,63.20
2023-04-30T06:27:50.989Z,64.18
2023-04-30T06:30:17.249Z,64.53
2023-04-30T06:32:43.687Z,64.44
2023-04-30T06:35:09.839Z,64.15
2023-04-30T06:37:35.930Z,61.46
2023-04-30T06:40:02.032Z,60.82
2023-04-30T06:42:28.233Z,62.51
2023-04-30T06:44:54.372Z,63.91
2023-04-30T06:47:20.662Z,63.58
2023-04-30T06:49:46.845Z,63.52
2023-04-30T06:52:12.949Z,59.45
2023-04-30T06:54:39.066Z,59.95
2023-04-30T06:57:05.544Z,59.89
2023-04-30T06:59:31.645Z,59.60
2023-04-30T07:01:57.866Z,57.34
2023-04-30T07:04:24.047Z,55.45
2023-04-30T07:06:50.266Z,56.07
2023-04-30T07:09:16.522Z,56.82
2023-04-30T07:11:42.604Z,56.86
2023-04-30T07:14:08.736Z,55.04
2023-04-30T07:16:34.946Z,57.16
2023-04-30T07:19:01.184Z,55.37
2023-04-30T07:21:27.281Z,56.22
2023-04-30T07:23:53.398Z,55.57
2023-04-30T07:26:19.522Z,56.96
2023-04-30T07:28:45.622Z,57.19
2023-04-30T07:31:11.778Z,57.57
2023-04-30T07:33:37.915Z,59.68
2023-04-30T07:36:04.442Z,60.76
2023-04-30T07:38:30.565Z,60.19
2023-04-30T07:40:56.662Z,59.29
2023-04-30T07:43:22.829Z,58.12
2023-04-30T07:45:48.972Z,58.41
2023-04-30T07:48:15.104Z,57.29
2023-04-30T07:50:41.201Z,57.30
2023-04-30T07:53:07.339Z,58.16
2023-04-30T07:55:33.450Z,54.11
2023-04-30T07:57:59.552Z,52.40
2023-04-30T08:00:25.640Z,51.58
2023-04-30T08:02:52.088Z,46.80
2023-04-30T08:05:18.281Z,46.04
2023-04-30T08:07:44.405Z,43.16
2023-04-30T08:10:10.663Z,43.78
2023-04-30T08:12:36.766Z,44.41
2023-04-30T08:15:03.022Z,45.21
2023-04-30T08:17:29.195Z,46.83
2023-04-30T08:19:55.496Z,45.70
2023-04-30T08:22:21.883Z,47.03
2023-04-30T08:24:47.981Z,45.04
2023-04-30T08:27:14.074Z,45.65
2023-04-30T08:29:40.202Z,47.00
2023-04-30T08:32:06.380Z,46.13
2023-04-30T08:34:32.536Z,47.49
2023-04-30T08:36:58.662Z,45.87
2023-04-30T08:39:24.749Z,44.01
2023-04-30T08:41:50.904Z,43.75
2023-04-30T08:44:17.021Z,45.77
2023-04-30T08:46:43.139Z,44.83
2023-04-30T08:49:09.277Z,45.20
2023-04-30T08:51:35.393Z,45.07
2023-04-30T08:54:01.618Z,45.71
2023-04-30T08:56:27.831Z,49.00
2023-04-30T08:58:53.936Z,49.00
2023-04-30T09:01:20.079Z,48.60
2023-04-30T09:03:46.367Z,49.38
2023-04-30T09:06:12.606Z,48.76
2023-04-30T09:08:39.040Z,50.07
2023-04-30T09:11:05.151Z,50.20
2023-04-30T09:13:31.263Z,50.69
2023-04-30T09:15:57.384Z,50.13
2023-04-30T09:18:23.497Z,50.88
2023-04-30T09:20:49.612Z,53.90
2023-04-30T09:23:15.713Z,55.68
2023-04-30T09:25:42.156Z,55.17
2023-04-30T09:28:08.269Z,58.05
2023-04-30T09:30:34.352Z,57.55
2023-04-30T09:33:00.512Z,56.87
2023-04-30T09:35:26.650Z,56.06
2023-04-30T09:37:52.730Z,56.88
2023-04-30T09:40:18.844Z,57.04
2023-04-30T09:42:44.955Z,56.57
2023-04-30T09:45:11.059Z,55.74
2023-04-30T09:47:37.215Z,57.05
2023-04-30T09:50:03.388Z,56.80
2023-04-30T09:52:29.479Z,54.94
2023-04-30T09:54:55.602Z,53.26
2023-04-30T09:57:21.713Z,52.53
2023-04-30T09:59:47.831Z,53.16
2023-04-30T10:02:14.151Z,53.73
2023-04-30T10:04:40.271Z,54.66
2023-04-30T10:07:06.395Z,52.77
2023-04-30T10:09:32.514Z,51.78
2023-04-30T10:11:58.644Z,51.43
2023-04-30T10:14:24.759Z,52.63
2023-04-30T10:16:50.901Z,52.49
2023-04-30T10:19:17.083Z,51.66
2023-04-30T10:21:43.304Z,51.25
2023-04-30T10:24:09.415Z,51.14
2023-04-30T10:26:35.510Z,50.58
2023-04-30T10:29:01.646Z,50.78
2023-04-30T10:31:27.794Z,50.97
2023-04-30T10:33:53.984Z,52.79
2023-04-30T10:36:20.120Z,51.38
2023-04-30T10:38:48.413Z,50.71
2023-04-30T10:41:14.858Z,49.08
2023-04-30T10:43:41.378Z,49.63
2023-04-30T10:46:07.501Z,47.97
2023-04-30T10:48:33.610Z,49.90
2023-04-30T10:50:59.822Z,48.89
2023-04-30T10:53:25.972Z,49.08
2023-04-30T10:55:52.109Z,47.49
2023-04-30T10:58:18.228Z,46.40
2023-04-30T11:00:44.931Z,46.68
2023-04-30T11:03:11.368Z,46.84
2023-04-30T11:05:37.656Z,45.16
2023-04-30T11:08:03.783Z,44.12
2023-04-30T11:10:30.022Z,43.02
2023-04-30T11:12:56.160Z,42.83
2023-04-30T11:15:22.312Z,42.00
2023-04-30T11:17:48.556Z,41.86
2023-04-30T11:20:14.737Z,43.95
2023-04-30T11:22:40.840Z,44.31
2023-04-30T11:25:06.979Z,44.08
2023-04-30T11:27:33.070Z,44.47
2023-04-30T11:29:59.445Z,44.28
2023-04-30T11:32:25.709Z,43.59
2023-04-30T11:34:51.865Z,46.50
2023-04-30T11:37:17.990Z,45.25
2023-04-30T11:39:44.111Z,44.15
2023-04-30T11:42:10.259Z,43.93
2023-04-30T11:44:36.368Z,45.70
2023-04-30T11:47:02.599Z,45.82
2023-04-30T11:49:28.697Z,46.13
2023-04-30T11:51:54.804Z,46.42
2023-04-30T11:54:20.934Z,47.46
2023-04-30T11:56:47.061Z,46.40
2023-04-30T11:59:13.179Z,48.94
2023-04-30T12:01:39.299Z,47.43
2023-04-30T12:04:05.583Z,47.55
2023-04-30T12:06:31.841Z,47.67
2023-04-30T12:08:58.085Z,48.55
2023-04-30T12:11:24.517Z,47.29
2023-04-30T12:13:50.619Z,47.95
2023-04-30T12:16:16.765Z,48.92
2023-04-30T12:18:43.020Z,49.10
2023-04-30T12:21:09.156Z,48.85
2023-04-30T12:23:35.258Z,49.17
2023-04-30T12:26:01.354Z,49.65
2023-04-30T12:28:27.508Z,51.17
2023-04-30T12:30:53.592Z,42.80
2023-04-30T12:33:19.759Z,41.93
2023-04-30T12:35:45.975Z,41.63
2023-04-30T12:38:12.087Z,41.12
2023-04-30T12:40:38.217Z,41.05
2023-04-30T12:43:04.332Z,39.89
2023-04-30T12:45:30.423Z,40.70
2023-04-30T12:47:56.555Z,41.94
2023-04-30T12:50:22.713Z,42.24
2023-04-30T12:52:48.836Z,42.87
2023-04-30T12:55:14.946Z,42.64
2023-04-30T12:57:41.042Z,43.35
2023-04-30T13:00:07.231Z,43.74
2023-04-30T13:02:33.474Z,43.51
2023-04-30T13:04:59.669Z,43.91
2023-04-30T13:07:25.764Z,43.51
2023-04-30T13:09:51.863Z,43.62
2023-04-30T13:12:17.965Z,43.01
2023-04-30T13:14:44.047Z,43.53
2023-04-30T13:17:10.194Z,43.72
2023-04-30T13:19:37.399Z,43.38
2023-04-30T13:22:03.506Z,42.28
2023-04-30T13:24:29.604Z,41.76
2023-04-30T13:26:55.709Z,41.14
2023-04-30T13:29:21.793Z,40.82
2023-04-30T13:31:48.062Z,40.59
2023-04-30T13:34:14.246Z,40.08
2023-04-30T13:36:40.349Z,40.67
2023-04-30T13:39:06.473Z,39.55
2023-04-30T13:41:32.572Z,39.86
2023-04-30T13:43:58.691Z,40.02
2023-04-30T13:46:24.801Z,39.71
2023-04-30T13:48:50.905Z,39.23
2023-04-30T13:51:17.134Z,39.45
2023-04-30T13:53:43.289Z,39.79
2023-04-30T13:56:09.402Z,40.31
2023-04-30T13:58:35.719Z,39.04
2023-04-30T14:01:01.897Z,38.11
2023-04-30T14:03:28.156Z,37.99
2023-04-30T14:05:54.302Z,36.96
2023-04-30T14:08:22.652Z,36.33
2023-04-30T14:10:49.489Z,37.17
2023-04-30T14:13:15.586Z,36.54
2023-04-30T14:15:41.713Z,36.01
2023-04-30T14:18:07.903Z,36.55
2023-04-30T14:20:34.039Z,35.39
2023-04-30T14:23:02.653Z,34.26
2023-04-30T14:25:29.279Z,34.27
2023-04-30T14:27:55.712Z,34.05
2023-04-30T14:30:21.829Z,33.80
2023-04-30T14:32:47.942Z,34.21
2023-04-30T14:35:14.213Z,40.93
2023-04-30T14:37:40.387Z,55.69
2023-04-30T14:40:06.527Z,55.94
2023-04-30T14:42:32.649Z,58.40
2023-04-30T14:44:58.848Z,59.12
2023-04-30T14:47:24.974Z,58.57
2023-04-30T14:49:51.114Z,58.84
2023-04-30T14:52:17.347Z,57.75
2023-04-30T14:54:43.462Z,57.87
2023-04-30T14:57:09.565Z,58.62
2023-04-30T14:59:35.672Z,57.77
2023-04-30T15:02:01.810Z,55.69
2023-04-30T15:04:27.943Z,55.66
2023-04-30T15:06:54.029Z,54.58
2023-04-30T15:09:20.163Z,54.89
2023-04-30T15:11:46.272Z,55.75
2023-04-30T15:14:12.388Z,57.08
2023-04-30T15:16:38.505Z,55.29
2023-04-30T15:19:04.612Z,55.42
2023-04-30T15:21:30.696Z,55.51
2023-04-30T15:23:56.818Z,54.78
2023-04-30T15:26:23.013Z,54.10
2023-04-30T15:28:49.195Z,53.66
2023-04-30T15:31:15.348Z,53.95
2023-04-30T15:33:41.528Z,57.32
2023-04-30T15:36:07.986Z,58.01
2023-04-30T15:38:34.077Z,61.04
2023-04-30T15:41:00.215Z,62.33
2023-04-30T15:43:26.290Z,68.59
2023-04-30T15:45:52.608Z,69.57
2023-04-30T15:48:19.055Z,71.49
2023-04-30T15:50:45.166Z,71.56
2023-04-30T15:53:11.265Z,70.89
2023-04-30T15:55:37.684Z,71.29
2023-04-30T15:58:03.791Z,71.80
2023-04-30T16:00:29.910Z,71.54
2023-04-30T16:02:56.160Z,70.83
2023-04-30T16:05:22.407Z,69.15
2023-04-30T16:07:48.559Z,69.60
2023-04-30T16:10:14.729Z,72.23
2023-04-30T16:12:40.872Z,72.68
2023-04-30T16:15:07.270Z,72.97
2023-04-30T16:17:33.480Z,72.06
2023-04-30T16:19:59.672Z,71.94
2023-04-30T16:22:25.888Z,70.21
2023-04-30T16:24:52.005Z,69.32
2023-04-30T16:27:18.429Z,70.85
2023-04-30T16:29:44.850Z,71.45
2023-04-30T16:32:11.198Z,72.30
2023-04-30T16:34:37.418Z,71.99
2023-04-30T16:37:03.533Z,70.89
2023-04-30T16:39:29.649Z,73.30
2023-04-30T16:41:55.767Z,69.81
2023-04-30T16:44:21.847Z,68.74
2023-04-30T16:46:48.197Z,68.80
2023-04-30T16:49:14.332Z,70.14
2023-04-30T16:51:40.459Z,72.03
2023-04-30T16:54:06.581Z,70.36
2023-04-30T16:56:32.683Z,69.31
2023-04-30T16:58:58.934Z,67.70
2023-04-30T17:01:25.265Z,66.30
2023-04-30T17:03:51.604Z,66.29
2023-04-30T17:06:17.802Z,68.58
2023-04-30T17:08:43.932Z,69.15
2023-04-30T17:11:10.019Z,69.68
2023-04-30T17:13:36.143Z,68.02
2023-04-30T17:16:02.479Z,68.46
2023-04-30T17:18:28.673Z,67.76
2023-04-30T17:20:54.802Z,66.51
2023-04-30T17:23:20.892Z,67.95
2023-04-30T17:25:46.981Z,65.67
2023-04-30T17:28:13.120Z,67.13
2023-04-30T17:30:39.218Z,67.26
2023-04-30T17:33:05.474Z,66.29
2023-04-30T17:35:31.659Z,65.61
2023-04-30T17:37:57.800Z,65.51
2023-04-30T17:40:24.253Z,64.92
2023-04-30T17:42:50.388Z,63.73
2023-04-30T17:45:16.588Z,66.52
2023-04-30T17:47:42.737Z,66.49
2023-04-30T17:50:08.860Z,68.32
2023-04-30T17:52:34.958Z,67.92
2023-04-30T17:55:01.188Z,66.45
2023-04-30T17:57:27.328Z,67.14
2023-04-30T17:59:53.499Z,67.67
2023-04-30T18:02:19.723Z,66.83
2023-04-30T18:04:45.930Z,65.50
2023-04-30T18:07:12.037Z,64.08
2023-04-30T18:09:38.192Z,64.46
2023-04-30T18:12:04.474Z,63.40
2023-04-30T18:14:30.575Z,63.34
2023-04-30T18:16:56.760Z,64.60
2023-04-30T18:19:22.878Z,64.84
2023-04-30T18:21:48.971Z,64.93
2023-04-30T18:24:15.083Z,65.32
2023-04-30T18:26:41.285Z,65.22
2023-04-30T18:29:07.386Z,65.53
2023-04-30T18:31:33.531Z,64.83
2023-04-30T18:33:59.681Z,64.71
2023-04-30T18:36:25.772Z,64.32
2023-04-30T18:38:51.870Z,63.02
2023-04-30T18:41:18.112Z,62.52
2023-04-30T18:43:44.230Z,63.29
2023-04-30T18:46:10.791Z,63.91
2023-04-30T18:48:36.952Z,63.17
2023-04-30T18:51:03.071Z,63.56
2023-04-30T18:53:29.193Z,63.37
2023-04-30T18:55:55.318Z,63.39
2023-04-30T18:58:21.418Z,63.47
2023-04-30T19:00:47.583Z,63.26
2023-04-30T19:03:13.816Z,65.14
2023-04-30T19:05:40.006Z,64.21
2023-04-30T19:08:06.123Z,64.41
2023-04-30T19:10:32.240Z,65.09
2023-04-30T19:12:58.334Z,64.94
2023-04-30T19:15:24.453Z,65.20
2023-04-30T19:17:50.623Z,65.29
2023-04-30T19:20:16.744Z,64.40
2023-04-30T19:22:42.848Z,63.80
2023-04-30T19:25:08.977Z,62.78
2023-04-30T19:27:35.095Z,62.85
2023-04-30T19:30:01.208Z,62.85
2023-04-30T19:32:27.407Z,63.75
2023-04-30T19:34:53.605Z,63.28
2023-04-30T19:37:19.710Z,63.96
2023-04-30T19:39:45.818Z,63.21
2023-04-30T19:42:11.927Z,64.27
2023-04-30T19:44:38.049Z,64.01
2023-04-30T19:47:04.206Z,63.28
2023-04-30T19:49:30.312Z,63.83
2023-04-30T19:51:56.432Z,64.46
2023-04-30T19:54:22.538Z,64.29
2023-04-30T19:56:48.665Z,65.05
2023-04-30T19:59:14.820Z,64.58
2023-04-30T20:01:41.042Z,64.72
2023-04-30T20:04:07.566Z,64.98
2023-04-30T20:06:33.819Z,65.24
2023-04-30T20:08:59.983Z,65.41
2023-04-30T20:11:26.089Z,65.90
2023-04-30T20:13:52.174Z,65.57
2023-04-30T20:16:18.284Z,65.86
2023-04-30T20:18:44.401Z,65.88
2023-04-30T20:21:10.516Z,66.30
2023-04-30T20:23:36.627Z,66.31
2023-04-30T20:26:02.770Z,66.60
2023-04-30T20:28:28.882Z,65.43
2023-04-30T20:30:55.010Z,65.70
2023-04-30T20:33:21.109Z,65.90
2023-04-30T20:35:47.237Z,66.14
2023-04-30T20:38:13.381Z,66.43
2023-04-30T20:40:39.525Z,66.36
2023-04-30T20:43:05.660Z,66.14
2023-04-30T20:45:31.892Z,66.36
2023-04-30T20:47:58.063Z,66.34
2023-04-30T20:50:24.354Z,66.19
2023-04-30T20:52:50.826Z,66.25
2023-04-30T20:55:16.929Z,66.45
2023-04-30T20:57:43.060Z,66.25
2023-04-30T21:00:09.183Z,66.45
2023-04-30T21:02:35.330Z,67.00
2023-04-30T21:05:01.542Z,67.11
2023-04-30T21:07:27.776Z,66.75
2023-04-30T21:09:54.022Z,66.90
2023-04-30T21:12:20.260Z,65.91
2023-04-30T21:14:46.361Z,66.04
2023-04-30T21:17:12.474Z,67.38
2023-04-30T21:19:38.623Z,66.32
2023-04-30T21:22:04.742Z,67.21
2023-04-30T21:24:30.870Z,67.05
2023-04-30T21:26:57.017Z,66.57
2023-04-30T21:29:23.119Z,66.02
2023-04-30T21:31:49.207Z,66.32
2023-04-30T21:34:15.354Z,65.79
2023-04-30T21:36:41.454Z,65.50
2023-04-30T21:39:08.661Z,66.04
2023-04-30T21:41:34.871Z,65.50
2023-04-30T21:44:00.970Z,65.51
2023-04-30T21:46:27.186Z,64.95
2023-04-30T21:48:53.437Z,65.32
2023-04-30T21:51:19.521Z,65.16
2023-04-30T21:53:45.708Z,65.97
2023-04-30T21:56:11.900Z,65.82
2023-04-30T21:58:38.031Z,65.85
2023-04-30T22:01:04.435Z,66.21
2023-04-30T22:03:30.829Z,66.22
2023-04-30T22:05:57.054Z,65.85
2023-04-30T22:08:23.232Z,65.45
2023-04-30T22:10:49.315Z,65.97
2023-04-30T22:13:15.434Z,66.02
2023-04-30T22:18:13.017Z,66.22
2023-04-30T22:20:39.117Z,65.70
2023-04-30T22:23:05.202Z,65.60
2023-04-30T22:25:31.318Z,65.06
2023-04-30T22:27:57.770Z,65.70
2023-04-30T22:30:23.872Z,65.80
2023-04-30T22:32:49.986Z,65.51
2023-04-30T22:35:16.188Z,65.84
2023-04-30T22:37:42.314Z,66.02
2023-04-30T22:40:08.436Z,66.08
2023-04-30T22:42:34.549Z,66.13
2023-04-30T22:45:00.667Z,66.13
2023-04-30T22:47:26.826Z,66.45
2023-04-30T22:49:53.088Z,66.33
2023-04-30T22:52:19.202Z,66.81
2023-04-30T22:54:45.296Z,66.37
2023-04-30T22:57:11.384Z,66.27
2023-04-30T22:59:37.474Z,66.28
2023-04-30T23:02:03.604Z,65.92
2023-04-30T23:04:29.734Z,66.09
2023-04-30T23:06:55.881Z,66.13
2023-04-30T23:09:22.175Z,66.38
2023-04-30T23:11:48.401Z,65.84
2023-04-30T23:14:14.565Z,66.16
2023-04-30T23:16:40.722Z,65.90
2023-04-30T23:19:06.816Z,66.28
2023-04-30T23:21:32.900Z,65.59
2023-04-30T23:23:59.002Z,65.50
2023-04-30T23:26:25.095Z,65.70
2023-04-30T23:28:51.229Z,66.31
2023-04-30T23:31:17.316Z,66.02
2023-04-30T23:33:43.445Z,65.97
2023-04-30T23:36:09.531Z,66.36
2023-04-30T23:38:35.647Z,65.94
2023-04-30T23:41:01.780Z,66.28
2023-04-30T23:43:27.895Z,66.57
2023-04-30T23:45:54.044Z,66.43
2023-04-30T23:48:20.219Z,66.32
2023-04-30T23:50:46.328Z,66.10
2023-04-30T23:53:12.448Z,66.14
2023-04-30T23:55:38.562Z,66.28
2023-04-30T23:58:04.639Z,65.96
